Saiyo — A8ZS9 — position and weather

sailwx.info

Track history (hours):
 
Tides and Currents Weather Stations Pressure Air Temp Water Temp Dewpoint Dewpoint Depression Visibility Wind Speed Wind Dir Waves Ship Positions

Saiyo

Last reported at 2018-Jul-09 10:37 UTC. Time now 2018-Jul-20 10:42 UTC.
Position S 27°01' E 153°41'.
Warning: this ship's position is 11 days out of date.

Length 235 m; draft 12.6 m.

Type: Cargo ship. MMSI: 636015291.

Date/timePositionNaut miles runAvg speedWind from/ knotsBaromVisibWave heightAir tempDewpointWater temp
2018-Jul-09 10:37S 27°01' E 153°41'210.4
2018-Jul-09 10:24S 27°03' E 153°41'410.3
2018-Jul-09 09:59S 27°07' E 153°41'510.0
2018-Jul-09 09:27S 27°12' E 153°41'510.1
2018-Jul-09 09:00S 27°17' E 153°40'510.6
2018-Jul-09 08:31S 27°22' E 153°40'611.7
2018-Jul-09 08:00S 27°28' E 153°40'611.5
2018-Jul-09 07:31S 27°34' E 153°40'510.8
2018-Jul-09 07:01S 27°39' E 153°40'510.6
2018-Jul-09 06:31S 27°44' E 153°41'611.3
2018-Jul-09 06:00S 27°50' E 153°41'611.4
2018-Jul-09 05:30S 27°56' E 153°42'611.4
2018-Jul-09 05:00S 28°01' E 153°42'611.0
2018-Jul-09 04:30S 28°07' E 153°43'26211.6
2018-Jul-08 05:52S 32°24' E 152°45'411.7
2018-Jul-08 05:30S 32°28' E 152°43'612.1
2018-Jul-08 05:00S 32°32' E 152°38'612.1
2018-Jul-08 04:31S 32°36' E 152°32'612.1
2018-Jul-08 04:00S 32°40' E 152°27'611.7
2018-Jul-08 03:30S 32°44' E 152°22'611.5
2018-Jul-08 03:01S 32°48' E 152°17'611.2
2018-Jul-08 02:31S 32°50' E 152°11'611.2
2018-Jul-08 02:00S 32°53' E 152°05'510.9
2018-Jul-08 01:30S 32°55' E 151°59'611.2
2018-Jul-08 01:00S 32°56' E 151°52'4 7.4
2018-Jul-08 00:30S 32°55' E 151°48'2 3.3
2018-Jul-08 00:01S 32°54' E 151°46'1 0.2
2018-Jul-07 18:25S 32°53' E 151°46'0 0.0
2018-Jul-07 17:55S 32°53' E 151°46'0 0.0
2018-Jul-07 17:25S 32°53' E 151°46'0 0.0
2018-Jul-07 12:19S 32°53' E 151°46'0 0.0
2018-Jul-07 11:55S 32°53' E 151°46'0 0.0
2018-Jul-07 11:28S 32°53' E 151°46'0 0.0
2018-Jul-07 10:07S 32°53' E 151°46'0 0.0
2018-Jul-07 09:55S 32°53' E 151°46'0 0.0
2018-Jul-07 09:19S 32°53' E 151°46'0 0.0
2018-Jul-07 08:40S 32°53' E 151°46'0 0.0
2018-Jul-07 08:13S 32°53' E 151°46'0 0.1
2018-Jul-07 07:46S 32°53' E 151°46'0 1.2
2018-Jul-07 07:30S 32°54' E 151°46'2 3.5
2018-Jul-07 07:00S 32°55' E 151°48'3 6.5
2018-Jul-07 06:30S 32°56' E 151°51'3 6.8
2018-Jul-07 06:00S 32°59' E 151°52'2 4.3
2018-Jul-07 05:30S 33°01' E 151°52'3 6.7
2018-Jul-07 05:00S 33°04' E 151°50'610.3
2018-Jul-07 04:27S 33°08' E 151°45'1 0.1
2018-Jul-06 20:57S 33°08' E 151°44'0 0.0
2018-Jul-06 19:48S 33°08' E 151°43'0 0.0
2018-Jul-06 19:30S 33°08' E 151°43'0 0.0
2018-Jul-06 18:57S 33°08' E 151°43'0 0.0
2018-Jul-06 17:42S 33°08' E 151°43'0 0.1
2018-Jul-06 17:12S 33°08' E 151°44'0 0.0
2018-Jul-06 16:51S 33°08' E 151°44'0 0.1
2018-Jul-06 16:21S 33°08' E 151°43'0 0.0
2018-Jul-06 15:51S 33°08' E 151°43'0 0.1
2018-Jul-06 15:30S 33°08' E 151°43'0 0.0
2018-Jul-06 14:36S 33°08' E 151°43'0 0.3
2018-Jul-06 14:24S 33°08' E 151°43'0 0.1
2018-Jul-06 14:00S 33°08' E 151°43'0 0.1
2018-Jul-06 13:27S 33°08' E 151°43'0 0.0
2018-Jul-06 12:48S 33°08' E 151°43'0 0.2
2018-Jul-06 12:30S 33°08' E 151°44'0 0.0
2018-Jul-06 12:00S 33°08' E 151°44'0 0.1
2018-Jul-06 11:30S 33°08' E 151°43'0 0.0
2018-Jul-06 10:54S 33°08' E 151°43'0 0.0
2018-Jul-06 10:27S 33°08' E 151°43'0 0.0
2018-Jul-06 10:00S 33°08' E 151°43'0 0.0
2018-Jul-06 09:30S 33°08' E 151°43'0 0.1
2018-Jul-06 08:51S 33°08' E 151°43'0 0.1
2018-Jul-06 08:06S 33°08' E 151°43'0 0.1
2018-Jul-06 08:00S 33°08' E 151°43'0 0.1
2018-Jul-06 07:30S 33°08' E 151°44'0 0.1
2018-Jul-06 06:54S 33°08' E 151°43'0 0.0
2018-Jul-06 06:24S 33°08' E 151°43'0 0.0
2018-Jul-06 05:57S 33°08' E 151°43'0 0.1
2018-Jul-06 04:42S 33°08' E 151°44'0 0.1
2018-Jul-06 03:36S 33°08' E 151°43'0 0.0
2018-Jul-06 03:18S 33°08' E 151°43'0 0.0
2018-Jul-06 02:57S 33°08' E 151°43'0 0.0
2018-Jul-06 02:27S 33°08' E 151°43'0 0.1
2018-Jul-06 01:51S 33°08' E 151°43'0 0.1
2018-Jul-06 01:15S 33°08' E 151°43'0 0.2
2018-Jul-06 01:00S 33°08' E 151°43'0 0.0
2018-Jul-05 23:51S 33°08' E 151°43'0 0.0
2018-Jul-05 23:24S 33°08' E 151°43'0 0.0
2018-Jul-05 22:57S 33°08' E 151°43'0 0.1
2018-Jul-05 22:30S 33°08' E 151°43'0 0.0
2018-Jul-05 22:00S 33°08' E 151°43'0 0.0
2018-Jul-05 21:30S 33°08' E 151°43'0 0.0
2018-Jul-05 21:00S 33°08' E 151°43'0 0.1
2018-Jul-05 20:30S 33°08' E 151°43'0 0.0
2018-Jul-05 20:00S 33°08' E 151°43'0 0.0
2018-Jul-05 19:30S 33°08' E 151°43'0 0.0
2018-Jul-05 19:00S 33°08' E 151°43'0 0.0
2018-Jul-05 17:45S 33°08' E 151°43'0 0.0
2018-Jul-05 17:15S 33°08' E 151°43'0 0.0
2018-Jul-05 17:00S 33°08' E 151°43'0 0.0
2018-Jul-05 16:30S 33°08' E 151°43'0 0.0
2018-Jul-05 16:00S 33°08' E 151°43'0 0.0
2018-Jul-05 15:30S 33°08' E 151°43'0 0.0
2018-Jul-05 15:00S 33°08' E 151°43'0 0.0
2018-Jul-05 14:30S 33°08' E 151°43'0 0.0
2018-Jul-05 13:27S 33°08' E 151°43'0 0.0
2018-Jul-05 13:00S 33°08' E 151°43'0 0.1
2018-Jul-05 12:30S 33°08' E 151°43'0 0.1
2018-Jul-05 12:00S 33°08' E 151°43'0 0.0
2018-Jul-05 11:30S 33°08' E 151°43'0 0.0
2018-Jul-05 10:54S 33°08' E 151°43'0 0.0
2018-Jul-05 10:30S 33°08' E 151°43'0 0.0
2018-Jul-05 10:00S 33°08' E 151°43'0 0.0
2018-Jul-05 07:39S 33°08' E 151°43'0 0.0
2018-Jul-05 07:09S 33°08' E 151°43'0 0.0
2018-Jul-05 05:15S 33°08' E 151°43'0 0.0
2018-Jul-05 04:54S 33°08' E 151°43'0 0.0
2018-Jul-05 04:24S 33°08' E 151°43'0 0.0
2018-Jul-05 02:21S 33°08' E 151°43'0 0.0
2018-Jul-05 00:45S 33°08' E 151°43'0 0.0
2018-Jul-05 00:06S 33°08' E 151°43'0 0.2
2018-Jul-05 00:00S 33°08' E 151°43'0 0.0
2018-Jul-04 23:30S 33°08' E 151°43'0 0.0
2018-Jul-04 22:36S 33°08' E 151°43'0 0.0
2018-Jul-04 22:15S 33°08' E 151°43'0 0.0
2018-Jul-04 21:57S 33°08' E 151°43'0 0.0
2018-Jul-04 21:27S 33°08' E 151°43'0 0.0
2018-Jul-04 21:00S 33°08' E 151°43'0 0.0
2018-Jul-04 15:53S 33°08' E 151°43'2 4.3
2018-Jul-04 15:19S 33°07' E 151°46'412.0
2018-Jul-04 14:59S 33°06' E 151°50'613.0
2018-Jul-04 14:31S 33°02' E 151°57'713.1
2018-Jul-04 14:01S 32°59' E 152°03'713.2
2018-Jul-04 13:31S 32°54' E 152°09'612.8
2018-Jul-04 13:01S 32°50' E 152°15'612.6
2018-Jul-04 12:31S 32°46' E 152°20'612.5
2018-Jul-04 12:01S 32°41' E 152°25'612.5
2018-Jul-04 11:31S 32°37' E 152°31'612.3
2018-Jul-04 11:01S 32°33' E 152°36'612.0
2018-Jul-04 10:29S 32°29' E 152°42'511.1
2018-Jul-04 10:00S 32°24' E 152°45'  
2018-Jun-30 18:22S 28°08' E 153°47'613.1
2018-Jun-30 17:57S 28°02' E 153°48'612.9
2018-Jun-30 17:28S 27°56' E 153°49'913.1
2018-Jun-30 16:47S 27°47' E 153°49'514.0
2018-Jun-30 16:28S 27°43' E 153°50'714.1
2018-Jun-30 15:57S 27°35' E 153°50'3313.9
2018-Jun-30 13:34S 27°03' E 153°45'113.3
2018-Jun-30 13:30S 27°02' E 153°45'  
Track history (hours):
 
Tides and Currents Weather Stations Pressure Air Temp Water Temp Dewpoint Dewpoint Depression Visibility Wind Speed Wind Dir Waves Ship Positions

Saiyo

Last reported at 2018-Jul-09 10:37 UTC. Time now 2018-Jul-20 10:42 UTC.
Position S 27°01' E 153°41'.
Warning: this ship's position is 11 days out of date.

Length 235 m; draft 12.6 m.

Type: Cargo ship. MMSI: 636015291.

Date/timePositionNaut miles runAvg speedWind from/ knotsBaromVisibWave heightAir tempDewpointWater temp
2018-Jul-09 10:37S 27°01' E 153°41'210.4
2018-Jul-09 10:24S 27°03' E 153°41'410.3
2018-Jul-09 09:59S 27°07' E 153°41'510.0
2018-Jul-09 09:27S 27°12' E 153°41'510.1
2018-Jul-09 09:00S 27°17' E 153°40'510.6
2018-Jul-09 08:31S 27°22' E 153°40'611.7
2018-Jul-09 08:00S 27°28' E 153°40'611.5
2018-Jul-09 07:31S 27°34' E 153°40'510.8
2018-Jul-09 07:01S 27°39' E 153°40'510.6
2018-Jul-09 06:31S 27°44' E 153°41'611.3
2018-Jul-09 06:00S 27°50' E 153°41'611.4
2018-Jul-09 05:30S 27°56' E 153°42'611.4
2018-Jul-09 05:00S 28°01' E 153°42'611.0
2018-Jul-09 04:30S 28°07' E 153°43'26211.6
2018-Jul-08 05:52S 32°24' E 152°45'411.7
2018-Jul-08 05:30S 32°28' E 152°43'612.1
2018-Jul-08 05:00S 32°32' E 152°38'612.1
2018-Jul-08 04:31S 32°36' E 152°32'612.1
2018-Jul-08 04:00S 32°40' E 152°27'611.7
2018-Jul-08 03:30S 32°44' E 152°22'611.5
2018-Jul-08 03:01S 32°48' E 152°17'611.2
2018-Jul-08 02:31S 32°50' E 152°11'611.2
2018-Jul-08 02:00S 32°53' E 152°05'510.9
2018-Jul-08 01:30S 32°55' E 151°59'611.2
2018-Jul-08 01:00S 32°56' E 151°52'4 7.4
2018-Jul-08 00:30S 32°55' E 151°48'2 3.3
2018-Jul-08 00:01S 32°54' E 151°46'1 0.2
2018-Jul-07 18:25S 32°53' E 151°46'0 0.0
2018-Jul-07 17:55S 32°53' E 151°46'0 0.0
2018-Jul-07 17:25S 32°53' E 151°46'0 0.0
2018-Jul-07 12:19S 32°53' E 151°46'0 0.0
2018-Jul-07 11:55S 32°53' E 151°46'0 0.0
2018-Jul-07 11:28S 32°53' E 151°46'0 0.0
2018-Jul-07 10:07S 32°53' E 151°46'0 0.0
2018-Jul-07 09:55S 32°53' E 151°46'0 0.0
2018-Jul-07 09:19S 32°53' E 151°46'0 0.0
2018-Jul-07 08:40S 32°53' E 151°46'0 0.0
2018-Jul-07 08:13S 32°53' E 151°46'0 0.1
2018-Jul-07 07:46S 32°53' E 151°46'0 1.2
2018-Jul-07 07:30S 32°54' E 151°46'2 3.5
2018-Jul-07 07:00S 32°55' E 151°48'3 6.5
2018-Jul-07 06:30S 32°56' E 151°51'3 6.8
2018-Jul-07 06:00S 32°59' E 151°52'2 4.3
2018-Jul-07 05:30S 33°01' E 151°52'3 6.7
2018-Jul-07 05:00S 33°04' E 151°50'610.3
2018-Jul-07 04:27S 33°08' E 151°45'1 0.1
2018-Jul-06 20:57S 33°08' E 151°44'0 0.0
2018-Jul-06 19:48S 33°08' E 151°43'0 0.0
2018-Jul-06 19:30S 33°08' E 151°43'0 0.0
2018-Jul-06 18:57S 33°08' E 151°43'0 0.0
2018-Jul-06 17:42S 33°08' E 151°43'0 0.1
2018-Jul-06 17:12S 33°08' E 151°44'0 0.0
2018-Jul-06 16:51S 33°08' E 151°44'0 0.1
2018-Jul-06 16:21S 33°08' E 151°43'0 0.0
2018-Jul-06 15:51S 33°08' E 151°43'0 0.1
2018-Jul-06 15:30S 33°08' E 151°43'0 0.0
2018-Jul-06 14:36S 33°08' E 151°43'0 0.3
2018-Jul-06 14:24S 33°08' E 151°43'0 0.1
2018-Jul-06 14:00S 33°08' E 151°43'0 0.1
2018-Jul-06 13:27S 33°08' E 151°43'0 0.0
2018-Jul-06 12:48S 33°08' E 151°43'0 0.2
2018-Jul-06 12:30S 33°08' E 151°44'0 0.0
2018-Jul-06 12:00S 33°08' E 151°44'0 0.1
2018-Jul-06 11:30S 33°08' E 151°43'0 0.0
2018-Jul-06 10:54S 33°08' E 151°43'0 0.0
2018-Jul-06 10:27S 33°08' E 151°43'0 0.0
2018-Jul-06 10:00S 33°08' E 151°43'0 0.0
2018-Jul-06 09:30S 33°08' E 151°43'0 0.1
2018-Jul-06 08:51S 33°08' E 151°43'0 0.1
2018-Jul-06 08:06S 33°08' E 151°43'0 0.1
2018-Jul-06 08:00S 33°08' E 151°43'0 0.1
2018-Jul-06 07:30S 33°08' E 151°44'0 0.1
2018-Jul-06 06:54S 33°08' E 151°43'0 0.0
2018-Jul-06 06:24S 33°08' E 151°43'0 0.0
2018-Jul-06 05:57S 33°08' E 151°43'0 0.1
2018-Jul-06 04:42S 33°08' E 151°44'0 0.1
2018-Jul-06 03:36S 33°08' E 151°43'0 0.0
2018-Jul-06 03:18S 33°08' E 151°43'0 0.0
2018-Jul-06 02:57S 33°08' E 151°43'0 0.0
2018-Jul-06 02:27S 33°08' E 151°43'0 0.1
2018-Jul-06 01:51S 33°08' E 151°43'0 0.1
2018-Jul-06 01:15S 33°08' E 151°43'0 0.2
2018-Jul-06 01:00S 33°08' E 151°43'0 0.0
2018-Jul-05 23:51S 33°08' E 151°43'0 0.0
2018-Jul-05 23:24S 33°08' E 151°43'0 0.0
2018-Jul-05 22:57S 33°08' E 151°43'0 0.1
2018-Jul-05 22:30S 33°08' E 151°43'0 0.0
2018-Jul-05 22:00S 33°08' E 151°43'0 0.0
2018-Jul-05 21:30S 33°08' E 151°43'0 0.0
2018-Jul-05 21:00S 33°08' E 151°43'0 0.1
2018-Jul-05 20:30S 33°08' E 151°43'0 0.0
2018-Jul-05 20:00S 33°08' E 151°43'0 0.0
2018-Jul-05 19:30S 33°08' E 151°43'0 0.0
2018-Jul-05 19:00S 33°08' E 151°43'0 0.0
2018-Jul-05 17:45S 33°08' E 151°43'0 0.0
2018-Jul-05 17:15S 33°08' E 151°43'0 0.0
2018-Jul-05 17:00S 33°08' E 151°43'0 0.0
2018-Jul-05 16:30S 33°08' E 151°43'0 0.0
2018-Jul-05 16:00S 33°08' E 151°43'0 0.0
2018-Jul-05 15:30S 33°08' E 151°43'0 0.0
2018-Jul-05 15:00S 33°08' E 151°43'0 0.0
2018-Jul-05 14:30S 33°08' E 151°43'0 0.0
2018-Jul-05 13:27S 33°08' E 151°43'0 0.0
2018-Jul-05 13:00S 33°08' E 151°43'0 0.1
2018-Jul-05 12:30S 33°08' E 151°43'0 0.1
2018-Jul-05 12:00S 33°08' E 151°43'0 0.0
2018-Jul-05 11:30S 33°08' E 151°43'0 0.0
2018-Jul-05 10:54S 33°08' E 151°43'0 0.0
2018-Jul-05 10:30S 33°08' E 151°43'0 0.0
2018-Jul-05 10:00S 33°08' E 151°43'0 0.0
2018-Jul-05 07:39S 33°08' E 151°43'0 0.0
2018-Jul-05 07:09S 33°08' E 151°43'0 0.0
2018-Jul-05 05:15S 33°08' E 151°43'0 0.0
2018-Jul-05 04:54S 33°08' E 151°43'0 0.0
2018-Jul-05 04:24S 33°08' E 151°43'0 0.0
2018-Jul-05 02:21S 33°08' E 151°43'0 0.0
2018-Jul-05 00:45S 33°08' E 151°43'0 0.0
2018-Jul-05 00:06S 33°08' E 151°43'0 0.2
2018-Jul-05 00:00S 33°08' E 151°43'0 0.0
2018-Jul-04 23:30S 33°08' E 151°43'0 0.0
2018-Jul-04 22:36S 33°08' E 151°43'0 0.0
2018-Jul-04 22:15S 33°08' E 151°43'0 0.0
2018-Jul-04 21:57S 33°08' E 151°43'0 0.0
2018-Jul-04 21:27S 33°08' E 151°43'0 0.0
2018-Jul-04 21:00S 33°08' E 151°43'0 0.0
2018-Jul-04 15:53S 33°08' E 151°43'2 4.3
2018-Jul-04 15:19S 33°07' E 151°46'412.0
2018-Jul-04 14:59S 33°06' E 151°50'613.0
2018-Jul-04 14:31S 33°02' E 151°57'713.1
2018-Jul-04 14:01S 32°59' E 152°03'713.2
2018-Jul-04 13:31S 32°54' E 152°09'612.8
2018-Jul-04 13:01S 32°50' E 152°15'612.6
2018-Jul-04 12:31S 32°46' E 152°20'612.5
2018-Jul-04 12:01S 32°41' E 152°25'612.5
2018-Jul-04 11:31S 32°37' E 152°31'612.3
2018-Jul-04 11:01S 32°33' E 152°36'612.0
2018-Jul-04 10:29S 32°29' E 152°42'511.1
2018-Jul-04 10:00S 32°24' E 152°45'  
2018-Jun-30 18:22S 28°08' E 153°47'613.1
2018-Jun-30 17:57S 28°02' E 153°48'612.9
2018-Jun-30 17:28S 27°56' E 153°49'913.1
2018-Jun-30 16:47S 27°47' E 153°49'514.0
2018-Jun-30 16:28S 27°43' E 153°50'714.1
2018-Jun-30 15:57S 27°35' E 153°50'3313.9
2018-Jun-30 13:34S 27°03' E 153°45'113.3
2018-Jun-30 13:30S 27°02' E 153°45'  

Dump ship's entire track history